createdAt,value
2023-02-20T00:01:48.520Z,2.20
2023-02-20T00:04:17.870Z,2.10
2023-02-20T00:06:45.966Z,2.60
2023-02-20T00:09:14.519Z,2.67
2023-02-20T00:11:42.494Z,2.53
2023-02-20T00:14:10.440Z,2.80
2023-02-20T00:16:39.804Z,2.47
2023-02-20T00:19:10.214Z,4.20
2023-02-20T00:21:38.131Z,2.90
2023-02-20T00:24:06.691Z,3.40
2023-02-20T00:26:34.629Z,5.03
2023-02-20T00:29:02.579Z,2.97
2023-02-20T00:31:30.581Z,3.13
2023-02-20T00:33:59.879Z,3.63
2023-02-20T00:36:27.810Z,3.20
2023-02-20T00:38:55.781Z,2.97
2023-02-20T00:41:23.736Z,3.50
2023-02-20T00:43:51.646Z,3.17
2023-02-20T00:46:19.636Z,3.73
2023-02-20T00:48:47.698Z,2.90
2023-02-20T00:51:16.960Z,3.50
2023-02-20T00:53:44.966Z,3.20
2023-02-20T00:56:13.178Z,3.77
2023-02-20T00:58:41.436Z,3.83
2023-02-20T01:01:09.669Z,3.27
2023-02-20T01:03:37.694Z,3.53
2023-02-20T01:06:05.730Z,3.50
2023-02-20T01:08:35.051Z,4.83
2023-02-20T01:11:03.002Z,3.70
2023-02-20T01:13:30.909Z,3.60
2023-02-20T01:15:59.136Z,3.97
2023-02-20T01:18:27.429Z,3.77
2023-02-20T01:20:55.347Z,3.03
2023-02-20T01:23:23.365Z,3.90
2023-02-20T01:25:52.643Z,3.20
2023-02-20T01:28:20.613Z,4.00
2023-02-20T01:30:48.588Z,4.10
2023-02-20T01:33:16.607Z,4.00
2023-02-20T01:35:44.552Z,3.67
2023-02-20T01:38:12.519Z,4.07
2023-02-20T01:40:40.484Z,5.33
2023-02-20T01:43:13.775Z,4.47
2023-02-20T01:45:42.452Z,3.60
2023-02-20T01:50:51.635Z,4.10
2023-02-20T01:53:22.070Z,4.40
2023-02-20T01:55:53.942Z,4.27
2023-02-20T01:58:25.366Z,3.60
2023-02-20T02:00:54.190Z,4.37
2023-02-20T02:03:25.807Z,5.10
2023-02-20T02:05:56.750Z,3.93
2023-02-20T02:08:26.554Z,3.87
2023-02-20T02:11:00.504Z,4.73
2023-02-20T02:13:29.835Z,4.50
2023-02-20T02:16:08.895Z,4.30
2023-02-20T02:18:49.118Z,4.83
2023-02-20T02:22:14.761Z,4.77
2023-02-20T02:25:21.726Z,4.50
2023-02-20T02:28:34.374Z,5.57
2023-02-20T02:31:32.580Z,4.57
2023-02-20T02:34:40.142Z,5.90
2023-02-20T02:37:20.101Z,4.67
2023-02-20T02:39:56.023Z,5.30
2023-02-20T02:42:30.616Z,5.90
2023-02-20T02:45:04.182Z,5.47
2023-02-20T02:50:13.864Z,8.73
2023-02-20T02:52:48.669Z,6.13
2023-02-20T02:55:19.418Z,6.13
2023-02-20T02:57:47.698Z,5.90
2023-02-20T03:00:19.999Z,5.10
2023-02-20T03:02:54.842Z,7.20
2023-02-20T03:05:40.426Z,6.93
2023-02-20T03:08:14.291Z,7.73
2023-02-20T03:10:44.138Z,6.57
2023-02-20T03:13:14.072Z,6.63
2023-02-20T03:15:46.190Z,7.33
2023-02-20T03:18:23.742Z,6.97
2023-02-20T03:20:56.536Z,6.27
2023-02-20T03:25:58.650Z,7.77
2023-02-20T03:28:30.585Z,7.43
2023-02-20T03:31:05.926Z,8.87
2023-02-20T03:33:59.472Z,7.97
2023-02-20T03:36:50.470Z,8.03
2023-02-20T03:39:38.647Z,7.70
2023-02-20T03:42:29.129Z,7.07
2023-02-20T03:45:00.721Z,7.43
2023-02-20T03:47:30.319Z,9.33
2023-02-20T03:50:00.269Z,8.63
2023-02-20T03:52:28.413Z,9.83
2023-02-20T03:54:56.474Z,8.20
2023-02-20T03:57:31.282Z,7.87
2023-02-20T04:00:02.885Z,7.57
2023-02-20T04:02:32.845Z,9.73
2023-02-20T04:05:06.592Z,9.13
2023-02-20T04:07:39.973Z,8.50
2023-02-20T04:10:10.778Z,7.80
2023-02-20T04:12:43.518Z,8.00
2023-02-20T04:15:13.658Z,8.00
2023-02-20T04:17:47.379Z,7.87
2023-02-20T04:20:15.655Z,9.10
2023-02-20T04:22:47.859Z,8.27
2023-02-20T04:25:22.243Z,10.80
2023-02-20T04:27:51.753Z,8.13
2023-02-20T04:30:20.015Z,8.57
2023-02-20T04:32:48.108Z,9.50
2023-02-20T04:35:19.082Z,9.23
2023-02-20T04:37:47.139Z,9.13
2023-02-20T04:40:20.696Z,9.77
2023-02-20T04:42:48.680Z,8.83
2023-02-20T04:45:18.729Z,8.47
2023-02-20T04:47:47.435Z,9.27
2023-02-20T04:50:20.688Z,18.43
2023-02-20T04:52:48.887Z,9.40
2023-02-20T04:55:17.092Z,11.87
2023-02-20T04:57:46.447Z,10.93
2023-02-20T05:00:17.604Z,10.07
2023-02-20T05:02:46.554Z,9.37
2023-02-20T05:05:20.434Z,9.30
2023-02-20T05:07:48.931Z,9.77
2023-02-20T05:10:17.813Z,10.20
2023-02-20T05:12:45.974Z,16.30
2023-02-20T05:15:14.156Z,10.80
2023-02-20T05:17:43.551Z,10.40
2023-02-20T05:20:14.879Z,12.13
2023-02-20T05:22:42.090Z,10.50
2023-02-20T05:25:10.317Z,10.47
2023-02-20T05:27:38.413Z,14.30
2023-02-20T05:30:08.546Z,14.13
2023-02-20T05:32:36.766Z,12.43
2023-02-20T05:35:06.789Z,12.53
2023-02-20T05:37:34.722Z,13.90
2023-02-20T05:40:02.722Z,14.83
2023-02-20T05:42:30.718Z,11.50
2023-02-20T05:44:58.650Z,13.70
2023-02-20T05:47:26.589Z,12.73
2023-02-20T05:49:54.652Z,11.93
2023-02-20T05:52:23.985Z,14.53
2023-02-20T05:54:51.949Z,16.03
2023-02-20T05:57:19.928Z,14.37
2023-02-20T05:59:47.827Z,13.07
2023-02-20T06:02:15.777Z,14.33
2023-02-20T06:04:43.820Z,13.60
2023-02-20T06:07:11.838Z,20.23
2023-02-20T06:09:44.550Z,15.63
2023-02-20T06:12:14.578Z,14.43
2023-02-20T06:14:42.640Z,15.00
2023-02-20T06:17:10.642Z,14.47
2023-02-20T06:19:38.643Z,20.17
2023-02-20T06:22:06.752Z,17.07
2023-02-20T06:24:34.840Z,21.60
2023-02-20T06:27:04.259Z,13.40
2023-02-20T06:29:32.317Z,15.33
2023-02-20T06:32:00.908Z,13.23
2023-02-20T06:34:31.549Z,19.87
2023-02-20T06:37:00.253Z,19.83
2023-02-20T06:39:28.293Z,19.10
2023-02-20T06:41:56.434Z,17.33
2023-02-20T06:44:25.918Z,17.50
2023-02-20T06:46:53.984Z,23.10
2023-02-20T06:49:22.084Z,16.80
2023-02-20T06:51:53.734Z,17.43
2023-02-20T06:54:22.724Z,19.40
2023-02-20T06:56:51.163Z,16.73
2023-02-20T06:59:19.144Z,17.07
2023-02-20T07:01:49.143Z,16.30
2023-02-20T07:04:19.078Z,20.07
2023-02-20T07:06:47.203Z,20.00
2023-02-20T07:09:15.376Z,18.13
2023-02-20T07:11:44.051Z,21.27
2023-02-20T07:14:12.037Z,21.77
2023-02-20T07:16:40.315Z,22.70
2023-02-20T07:19:09.636Z,28.23
2023-02-20T07:21:37.599Z,16.23
2023-02-20T07:24:06.370Z,21.30
2023-02-20T07:26:35.221Z,25.67
2023-02-20T07:29:03.250Z,24.83
2023-02-20T07:31:31.481Z,20.63
2023-02-20T07:33:59.615Z,21.30
2023-02-20T07:36:29.247Z,24.87
2023-02-20T07:38:58.201Z,19.07
2023-02-20T07:41:29.840Z,21.27
2023-02-20T07:43:58.085Z,21.80
2023-02-20T07:46:26.347Z,30.13
2023-02-20T07:48:55.111Z,27.97
2023-02-20T07:51:23.177Z,22.53
2023-02-20T07:53:54.967Z,25.70
2023-02-20T07:56:26.240Z,24.17
2023-02-20T07:58:54.571Z,22.43
2023-02-20T08:01:24.697Z,25.17
2023-02-20T08:03:53.373Z,20.43
2023-02-20T08:06:21.605Z,31.80
2023-02-20T08:08:50.303Z,25.17
2023-02-20T08:11:20.814Z,21.67
2023-02-20T08:13:48.890Z,23.53
2023-02-20T08:16:17.403Z,27.30
2023-02-20T08:18:45.555Z,25.87
2023-02-20T08:21:13.616Z,20.10
2023-02-20T08:23:41.748Z,24.13
2023-02-20T08:26:09.808Z,26.77
2023-02-20T08:28:39.503Z,22.00
2023-02-20T08:31:07.933Z,21.67
2023-02-20T08:33:35.997Z,21.97
2023-02-20T08:36:04.403Z,23.47
2023-02-20T08:38:34.640Z,22.30
2023-02-20T08:41:08.359Z,24.03
2023-02-20T08:43:38.941Z,22.30
2023-02-20T08:46:08.547Z,24.60
2023-02-20T08:48:37.396Z,23.47
2023-02-20T08:51:06.828Z,24.67
2023-02-20T08:53:35.788Z,20.47
2023-02-20T08:56:04.663Z,22.97
2023-02-20T08:58:32.658Z,22.13
2023-02-20T09:01:02.170Z,20.77
2023-02-20T09:03:30.256Z,21.50
2023-02-20T09:05:58.266Z,26.83
2023-02-20T09:08:26.282Z,21.83
2023-02-20T09:10:54.564Z,22.80
2023-02-20T09:13:22.536Z,28.27
2023-02-20T09:15:50.587Z,24.63
2023-02-20T09:18:20.145Z,29.50
2023-02-20T09:20:48.951Z,23.53
2023-02-20T09:23:17.414Z,17.00
2023-02-20T09:25:45.545Z,19.43
2023-02-20T09:28:13.550Z,21.97
2023-02-20T09:30:41.735Z,28.50
2023-02-20T09:33:09.737Z,20.50
2023-02-20T09:35:39.105Z,21.47
2023-02-20T09:38:07.819Z,17.57
2023-02-20T09:40:35.826Z,14.00
2023-02-20T09:43:25.186Z,17.40
2023-02-20T09:45:59.368Z,21.47
2023-02-20T09:48:41.272Z,16.27
2023-02-20T09:51:15.084Z,17.33
2023-02-20T09:53:53.096Z,16.60
2023-02-20T09:56:24.083Z,21.43
2023-02-20T09:59:00.346Z,17.93
2023-02-20T10:01:30.375Z,13.43
2023-02-20T10:04:02.226Z,14.30
2023-02-20T10:06:33.229Z,21.17
2023-02-20T10:09:02.402Z,15.47
2023-02-20T10:11:49.636Z,14.00
2023-02-20T10:14:44.507Z,16.60
2023-02-20T10:17:21.891Z,20.53
2023-02-20T10:19:54.591Z,19.43
2023-02-20T10:22:30.436Z,11.80
2023-02-20T10:25:09.673Z,11.10
2023-02-20T10:27:48.776Z,13.27
2023-02-20T10:30:24.137Z,11.43
2023-02-20T10:32:56.236Z,13.77
2023-02-20T10:35:27.977Z,11.90
2023-02-20T10:38:04.383Z,13.90
2023-02-20T10:40:37.710Z,16.17
2023-02-20T10:43:11.137Z,18.00
2023-02-20T10:45:48.684Z,12.67
2023-02-20T10:48:17.134Z,13.80
2023-02-20T10:50:51.500Z,13.47
2023-02-20T10:53:31.568Z,10.07
2023-02-20T10:56:07.594Z,17.03
2023-02-20T10:58:40.644Z,11.13
2023-02-20T11:01:12.166Z,9.93
2023-02-20T11:03:46.603Z,12.87
2023-02-20T11:06:18.081Z,12.17
2023-02-20T11:08:47.604Z,13.23
2023-02-20T11:11:29.510Z,11.23
2023-02-20T11:14:00.728Z,9.03
2023-02-20T11:16:33.114Z,12.80
2023-02-20T11:19:10.121Z,13.27
2023-02-20T11:21:40.984Z,10.83
2023-02-20T11:24:23.086Z,9.57
2023-02-20T11:26:56.798Z,8.23
2023-02-20T11:29:25.664Z,9.80
2023-02-20T11:31:54.025Z,9.57
2023-02-20T11:34:25.306Z,9.30
2023-02-20T11:36:55.410Z,12.07
2023-02-20T11:39:27.270Z,10.63
2023-02-20T11:42:13.185Z,9.63
2023-02-20T11:44:41.248Z,8.40
2023-02-20T11:47:26.971Z,7.93
2023-02-20T11:50:18.952Z,12.80
2023-02-20T11:53:00.143Z,9.50
2023-02-20T11:55:30.801Z,11.00
2023-02-20T11:57:58.863Z,9.57
2023-02-20T12:00:28.868Z,15.63
2023-02-20T12:03:05.698Z,10.33
2023-02-20T12:05:42.512Z,6.93
2023-02-20T12:08:42.603Z,10.40
2023-02-20T12:11:16.108Z,8.97
2023-02-20T12:13:45.935Z,8.63
2023-02-20T12:16:38.796Z,8.40
2023-02-20T12:19:15.625Z,9.53
2023-02-20T12:22:00.619Z,7.73
2023-02-20T12:24:48.177Z,5.60
2023-02-20T12:27:35.695Z,6.13
2023-02-20T12:30:14.969Z,10.13
2023-02-20T12:32:53.556Z,6.47
2023-02-20T12:35:30.591Z,8.20
2023-02-20T12:38:16.411Z,7.50
2023-02-20T12:40:59.270Z,6.63
2023-02-20T12:43:38.937Z,11.47
2023-02-20T12:46:13.971Z,8.30
2023-02-20T12:48:53.167Z,7.83
2023-02-20T12:51:30.098Z,7.43
2023-02-20T12:54:13.757Z,10.03
2023-02-20T12:56:59.686Z,7.53
2023-02-20T12:59:36.136Z,9.37
2023-02-20T13:02:18.815Z,7.30
2023-02-20T13:04:53.172Z,11.90
2023-02-20T13:07:25.697Z,11.80
2023-02-20T13:10:02.873Z,9.73
2023-02-20T13:12:31.081Z,9.30
2023-02-20T13:15:26.348Z,9.17
2023-02-20T13:18:00.953Z,9.60
2023-02-20T13:20:33.320Z,6.40
2023-02-20T13:23:03.636Z,11.37
2023-02-20T13:25:45.110Z,9.90
2023-02-20T13:28:59.861Z,6.43
2023-02-20T13:31:46.282Z,7.27
2023-02-20T13:34:39.896Z,14.90
2023-02-20T13:37:46.862Z,8.13
2023-02-20T13:40:42.157Z,6.73
2023-02-20T13:43:28.429Z,13.53
2023-02-20T13:46:24.808Z,12.27
2023-02-20T13:48:56.304Z,10.37
2023-02-20T13:51:38.174Z,9.33
2023-02-20T13:54:21.317Z,13.30
2023-02-20T13:56:54.702Z,7.40
2023-02-20T13:59:22.799Z,15.30
2023-02-20T14:02:05.200Z,10.70
2023-02-20T14:04:34.715Z,9.07
2023-02-20T14:07:02.714Z,9.23
2023-02-20T14:09:32.275Z,8.13
2023-02-20T14:12:12.534Z,9.23
2023-02-20T14:14:44.568Z,10.13
2023-02-20T14:17:16.587Z,6.93
2023-02-20T14:19:47.917Z,7.10
2023-02-20T14:22:24.485Z,9.13
2023-02-20T14:25:27.302Z,11.50
2023-02-20T14:28:11.766Z,10.97
2023-02-20T14:30:40.368Z,8.00
2023-02-20T14:33:25.959Z,8.77
2023-02-20T14:36:14.661Z,7.97
2023-02-20T14:38:59.115Z,8.43
2023-02-20T14:41:27.293Z,8.77
2023-02-20T14:43:57.215Z,7.63
2023-02-20T14:46:27.380Z,17.70
2023-02-20T14:49:07.587Z,12.23
2023-02-20T14:51:38.069Z,11.07
2023-02-20T14:54:19.266Z,11.87
2023-02-20T14:56:50.948Z,13.13
2023-02-20T14:59:30.726Z,8.20
2023-02-20T15:02:01.493Z,11.13
2023-02-20T15:04:30.316Z,8.43
2023-02-20T15:07:05.034Z,10.17
2023-02-20T15:09:40.966Z,8.77
2023-02-20T15:12:19.518Z,9.60
2023-02-20T15:14:54.294Z,6.73
2023-02-20T15:17:25.358Z,9.18
2023-02-20T15:19:53.927Z,8.47
2023-02-20T15:22:29.668Z,9.83
2023-02-20T15:25:17.442Z,8.90
2023-02-20T15:28:12.220Z,9.70
2023-02-20T15:31:15.668Z,15.80
2023-02-20T15:33:55.245Z,10.27
2023-02-20T15:36:25.291Z,9.70
2023-02-20T15:38:55.722Z,10.27
2023-02-20T15:41:24.657Z,10.43
2023-02-20T15:43:52.652Z,7.50
2023-02-20T15:46:21.348Z,8.77
2023-02-20T15:48:49.452Z,10.38
2023-02-20T15:51:20.748Z,9.07
2023-02-20T15:53:49.300Z,8.80
2023-02-20T15:56:19.933Z,8.57
2023-02-20T15:58:49.480Z,6.17
2023-02-20T16:01:17.998Z,8.20
2023-02-20T16:03:54.677Z,10.53
2023-02-20T16:06:23.563Z,10.70
2023-02-20T16:08:52.732Z,11.63
2023-02-20T16:11:24.259Z,7.07
2023-02-20T16:13:56.618Z,8.90
2023-02-20T16:19:00.096Z,6.83
2023-02-20T16:21:28.382Z,9.80
2023-02-20T16:23:56.472Z,7.60
2023-02-20T16:26:29.888Z,9.80
2023-02-20T16:29:00.399Z,7.53
2023-02-20T16:32:16.507Z,8.17
2023-02-20T16:34:46.013Z,15.13
2023-02-20T16:37:14.980Z,9.20
2023-02-20T16:39:43.555Z,6.53
2023-02-20T16:42:38.968Z,8.30
2023-02-20T16:45:12.760Z,8.30
2023-02-20T16:47:41.084Z,12.10
2023-02-20T16:50:12.833Z,7.60
2023-02-20T16:52:42.060Z,8.80
2023-02-20T16:55:24.024Z,8.77
2023-02-20T16:57:53.827Z,13.07
2023-02-20T17:00:23.343Z,10.60
2023-02-20T17:03:11.604Z,12.70
2023-02-20T17:05:41.168Z,11.63
2023-02-20T17:08:10.414Z,16.43
2023-02-20T17:10:38.391Z,7.30
2023-02-20T17:13:07.689Z,9.10
2023-02-20T17:15:37.677Z,11.23
2023-02-20T17:18:06.464Z,11.90
2023-02-20T17:20:34.433Z,9.50
2023-02-20T17:23:05.636Z,8.10
2023-02-20T17:25:34.689Z,14.70
2023-02-20T17:28:02.796Z,11.53
2023-02-20T17:30:32.432Z,10.00
2023-02-20T17:33:00.656Z,7.43
2023-02-20T17:35:28.953Z,11.70
2023-02-20T17:37:56.974Z,13.63
2023-02-20T17:40:25.162Z,10.43
2023-02-20T17:42:53.148Z,7.75
2023-02-20T17:45:21.132Z,12.30
2023-02-20T17:47:50.470Z,7.90
2023-02-20T17:50:18.918Z,11.43
2023-02-20T17:52:47.277Z,8.93
2023-02-20T17:55:20.225Z,15.07
2023-02-20T17:57:48.225Z,10.53
2023-02-20T18:00:17.789Z,10.03
2023-02-20T18:02:45.841Z,12.60
2023-02-20T18:05:15.246Z,12.27
2023-02-20T18:07:43.300Z,9.67
2023-02-20T18:10:11.337Z,10.97
2023-02-20T18:12:40.210Z,13.07
2023-02-20T18:15:08.846Z,11.97
2023-02-20T18:17:38.663Z,9.33
2023-02-20T18:20:07.267Z,11.20
2023-02-20T18:22:36.642Z,10.63
2023-02-20T18:25:06.669Z,9.23
2023-02-20T18:27:34.694Z,10.73
2023-02-20T18:30:02.780Z,9.60
2023-02-20T18:32:30.839Z,9.90
2023-02-20T18:34:59.021Z,10.60
2023-02-20T18:37:27.020Z,13.17
2023-02-20T18:39:56.343Z,10.43
2023-02-20T18:42:24.454Z,11.27
2023-02-20T18:44:53.495Z,10.03
2023-02-20T18:47:21.709Z,10.83
2023-02-20T18:49:50.133Z,12.50
2023-02-20T18:52:32.304Z,10.37
2023-02-20T18:55:02.970Z,11.02
2023-02-20T18:57:30.899Z,13.00
2023-02-20T18:59:58.871Z,11.93
2023-02-20T19:02:27.014Z,17.50
2023-02-20T19:04:57.964Z,14.20
2023-02-20T19:07:25.922Z,16.00
2023-02-20T19:09:56.323Z,14.20
2023-02-20T19:12:26.032Z,13.27
2023-02-20T19:14:54.013Z,13.00
2023-02-20T19:17:22.164Z,14.40
2023-02-20T19:19:50.592Z,12.23
2023-02-20T19:22:18.588Z,18.47
2023-02-20T19:24:46.661Z,14.73
2023-02-20T19:27:14.608Z,18.67
2023-02-20T19:29:45.633Z,13.27
2023-02-20T19:32:13.885Z,16.53
2023-02-20T19:34:41.909Z,13.70
2023-02-20T19:37:09.908Z,18.93
2023-02-20T19:39:38.342Z,13.07
2023-02-20T19:42:07.042Z,14.87
2023-02-20T19:47:39.171Z,12.73
2023-02-20T19:50:07.819Z,19.20
2023-02-20T19:52:37.126Z,14.10
2023-02-20T19:55:05.843Z,13.83
2023-02-20T19:57:34.078Z,13.50
2023-02-20T20:00:02.070Z,15.03
2023-02-20T20:02:30.183Z,16.07
2023-02-20T20:04:59.527Z,13.97
2023-02-20T20:07:28.670Z,14.90
2023-02-20T20:09:57.511Z,17.10
2023-02-20T20:12:43.202Z,14.30
2023-02-20T20:17:55.351Z,18.90
2023-02-20T20:20:25.618Z,14.63
2023-02-20T20:25:29.378Z,14.20
2023-02-20T20:28:02.304Z,14.90
2023-02-20T20:30:33.142Z,25.37
2023-02-20T20:33:01.312Z,18.40
2023-02-20T20:35:31.163Z,14.63
2023-02-20T20:38:00.588Z,15.17
2023-02-20T20:40:29.661Z,18.17
2023-02-20T20:42:59.061Z,19.00
2023-02-20T20:45:27.912Z,15.90
2023-02-20T20:47:56.034Z,15.93
2023-02-20T20:50:28.170Z,15.73
2023-02-20T20:53:00.617Z,20.53
2023-02-20T20:55:28.867Z,17.60
2023-02-20T20:57:57.329Z,16.97
2023-02-20T21:00:29.309Z,17.43
2023-02-20T21:05:48.011Z,16.47
2023-02-20T21:08:18.939Z,15.30
2023-02-20T21:10:47.385Z,16.40
2023-02-20T21:13:15.923Z,16.50
2023-02-20T21:15:44.049Z,16.13
2023-02-20T21:18:12.400Z,18.83
2023-02-20T21:23:45.462Z,15.93
2023-02-20T21:26:15.575Z,16.70
2023-02-20T21:28:43.965Z,16.47
2023-02-20T21:31:12.516Z,19.30
2023-02-20T21:33:40.916Z,16.97
2023-02-20T21:38:48.104Z,18.23
2023-02-20T21:41:34.286Z,12.00
2023-02-20T21:44:19.719Z,15.43
2023-02-20T21:46:52.406Z,14.30
2023-02-20T21:49:22.765Z,12.37
2023-02-20T21:54:33.807Z,17.60
2023-02-20T21:59:36.241Z,12.93
2023-02-20T22:04:58.476Z,14.07
2023-02-20T22:10:41.219Z,11.93
2023-02-20T22:13:26.638Z,11.00
2023-02-20T22:16:12.450Z,13.20
2023-02-20T22:19:00.297Z,13.50
2023-02-20T22:33:04.743Z,15.03
2023-02-20T22:35:50.318Z,15.07
2023-02-20T22:38:37.532Z,16.33
2023-02-20T22:41:22.837Z,13.77
2023-02-20T22:47:04.445Z,13.03
2023-02-20T22:52:33.582Z,18.70
2023-02-20T23:04:23.414Z,17.27
2023-02-20T23:07:09.733Z,19.80
2023-02-20T23:09:57.703Z,16.33
2023-02-20T23:12:44.631Z,24.10
2023-02-20T23:15:30.762Z,16.83
2023-02-20T23:18:16.821Z,16.60
2023-02-20T23:32:36.799Z,20.37
2023-02-20T23:35:22.353Z,18.07
2023-02-20T23:40:53.004Z,18.73
2023-02-20T23:43:40.589Z,21.90
2023-02-20T23:46:27.822Z,16.63
